Time,TemperatureF,DewpointF,PressureIn,WindDirection,WindDirectionDegrees,WindSpeedMPH,WindSpeedGustMPH,Humidity,HourlyPrecipIn,Conditions,Clouds,dailyrainin,SoftwareType,DateUTC
2013-03-31 00:04:00,67.8,56.0,30.25,ESE,110,3.0,10.0,66,0.00,,,0.00,weatherlink.com 1.10,2013-03-31 04:04:00,
2013-03-31 00:18:00,67.9,56.0,30.25,ESE,112,6.0,11.0,65,0.00,,,0.00,weatherlink.com 1.10,2013-03-31 04:18:00,
2013-03-31 00:34:00,67.7,56.0,30.24,SE,132,6.0,8.0,66,0.00,,,0.00,weatherlink.com 1.10,2013-03-31 04:34:00,
2013-03-31 00:48:00,67.9,56.0,30.24,ESE,106,6.0,10.0,65,0.00,,,0.00,weatherlink.com 1.10,2013-03-31 04:48:00,
2013-03-31 01:04:00,67.9,56.0,30.24,ESE,110,6.0,12.0,65,0.00,,,0.00,weatherlink.com 1.10,2013-03-31 05:04:00,
2013-03-31 01:18:00,67.8,56.0,30.24,SE,145,4.0,11.0,65,0.00,,,0.00,weatherlink.com 1.10,2013-03-31 05:18:00,
2013-03-31 01:34:00,67.6,56.0,30.23,ESE,105,7.0,8.0,66,0.00,,,0.00,weatherlink.com 1.10,2013-03-31 05:34:00,
2013-03-31 01:49:00,67.8,56.0,30.22,ESE,103,7.0,12.0,66,0.00,,,0.00,weatherlink.com 1.10,2013-03-31 05:49:00,
2013-03-31 02:05:00,67.8,56.0,30.22,ESE,105,5.0,11.0,66,0.00,,,0.00,weatherlink.com 1.10,2013-03-31 06:05:00,
2013-03-31 02:19:00,68.0,56.0,30.21,SE,129,5.0,11.0,66,0.00,,,0.00,weatherlink.com 1.10,2013-03-31 06:19:00,
2013-03-31 02:35:00,68.1,57.0,30.21,East,101,15.0,15.0,67,0.00,,,0.00,weatherlink.com 1.10,2013-03-31 06:35:00,
2013-03-31 02:49:00,68.2,56.0,30.21,SE,132,4.0,10.0,66,0.00,,,0.00,weatherlink.com 1.10,2013-03-31 06:49:00,
2013-03-31 03:05:00,68.1,57.0,30.21,SE,145,6.0,9.0,68,0.00,,,0.00,weatherlink.com 1.10,2013-03-31 07:05:00,
2013-03-31 03:19:00,68.2,58.0,30.20,ESE,115,4.0,13.0,69,0.00,,,0.00,weatherlink.com 1.10,2013-03-31 07:19:00,
2013-03-31 03:35:00,67.9,57.0,30.20,SE,145,5.0,8.0,69,0.00,,,0.00,weatherlink.com 1.10,2013-03-31 07:35:00,
2013-03-31 03:49:00,68.0,58.0,30.19,SE,126,2.0,9.0,70,0.00,,,0.00,weatherlink.com 1.10,2013-03-31 07:49:00,
2013-03-31 04:05:00,67.8,58.0,30.19,ESE,115,4.0,7.0,71,0.00,,,0.00,weatherlink.com 1.10,2013-03-31 08:05:00,
2013-03-31 04:19:00,67.9,58.0,30.19,SSE,158,6.0,8.0,71,0.00,,,0.00,weatherlink.com 1.10,2013-03-31 08:19:00,
2013-03-31 04:35:00,66.3,57.0,30.19,West,276,3.0,4.0,72,0.00,,,0.00,weatherlink.com 1.10,2013-03-31 08:35:00,
2013-03-31 04:50:00,64.2,57.0,30.19,WSW,242,1.0,3.0,76,0.00,,,0.00,weatherlink.com 1.10,2013-03-31 08:50:00,
2013-03-31 05:20:00,62.3,56.0,30.19,SW,232,0.0,3.0,81,0.00,,,0.00,weatherlink.com 1.10,2013-03-31 09:20:00,
2013-03-31 05:36:00,61.5,57.0,30.19,SW,232,0.0,2.0,84,0.00,,,0.00,weatherlink.com 1.10,2013-03-31 09:36:00,
2013-03-31 05:50:00,61.2,56.0,30.19,SW,232,0.0,2.0,84,0.00,,,0.00,weatherlink.com 1.10,2013-03-31 09:50:00,
2013-03-31 06:06:00,61.2,57.0,30.20,West,273,0.0,2.0,85,0.00,,,0.00,weatherlink.com 1.10,2013-03-31 10:06:00,
2013-03-31 06:20:00,61.0,57.0,30.20,WNW,288,0.0,2.0,86,0.00,,,0.00,weatherlink.com 1.10,2013-03-31 10:20:00,
2013-03-31 06:36:00,60.8,57.0,30.20,NW,304,0.0,3.0,86,0.00,,,0.00,weatherlink.com 1.10,2013-03-31 10:36:00,
2013-03-31 06:50:00,60.1,56.0,30.21,WNW,290,0.0,0.0,87,0.00,,,0.00,weatherlink.com 1.10,2013-03-31 10:50:00,
2013-03-31 07:06:00,59.6,56.0,30.20,West,280,0.0,1.0,89,0.00,,,0.00,weatherlink.com 1.10,2013-03-31 11:06:00,
2013-03-31 07:21:00,59.6,56.0,30.21,WNW,295,0.0,2.0,89,0.00,,,0.00,weatherlink.com 1.10,2013-03-31 11:21:00,
2013-03-31 07:36:00,59.6,57.0,30.22,WNW,291,1.0,2.0,90,0.00,,,0.00,weatherlink.com 1.10,2013-03-31 11:36:00,
2013-03-31 08:06:00,61.9,59.0,30.22,WNW,282,0.0,0.0,89,0.00,,,0.00,weatherlink.com 1.10,2013-03-31 12:06:00,
2013-03-31 08:22:00,63.9,60.0,30.22,WNW,283,0.0,0.0,86,0.00,,,0.00,weatherlink.com 1.10,2013-03-31 12:22:00,
2013-03-31 08:36:00,65.3,60.0,30.22,North,8,0.0,0.0,83,0.00,,,0.00,weatherlink.com 1.10,2013-03-31 12:36:00,
2013-03-31 08:52:00,67.0,60.0,30.22,North,11,0.0,0.0,79,0.00,,,0.00,weatherlink.com 1.10,2013-03-31 12:52:00,
2013-03-31 09:06:00,68.1,61.0,30.22,North,358,0.0,0.0,79,0.00,,,0.00,weatherlink.com 1.10,2013-03-31 13:06:00,
2013-03-31 09:36:00,72.4,63.0,30.21,ESE,108,11.0,18.0,71,0.00,,,0.00,weatherlink.com 1.10,2013-03-31 13:36:00,
2013-03-31 09:53:00,73.4,63.0,30.22,SE,134,7.0,13.0,69,0.00,,,0.00,weatherlink.com 1.10,2013-03-31 13:53:00,
2013-03-31 10:07:00,73.7,63.0,30.23,SE,135,6.0,14.0,69,0.00,,,0.00,weatherlink.com 1.10,2013-03-31 14:07:00,
2013-03-31 10:23:00,73.8,63.0,30.23,SE,135,7.0,13.0,69,0.00,,,0.00,weatherlink.com 1.10,2013-03-31 14:23:00,
2013-03-31 10:37:00,74.6,63.0,30.23,SE,146,11.0,14.0,67,0.00,,,0.00,weatherlink.com 1.10,2013-03-31 14:37:00,
2013-03-31 10:52:00,75.4,64.0,30.23,SE,129,8.0,13.0,68,0.00,,,0.00,weatherlink.com 1.10,2013-03-31 14:52:00,
2013-03-31 11:08:00,74.5,64.0,30.22,SSE,148,8.0,17.0,69,0.00,,,0.00,weatherlink.com 1.10,2013-03-31 15:08:00,
2013-03-31 11:22:00,74.9,64.0,30.22,ESE,116,11.0,15.0,69,0.00,,,0.00,weatherlink.com 1.10,2013-03-31 15:22:00,
2013-03-31 11:38:00,74.5,63.0,30.21,SE,139,11.0,17.0,68,0.00,,,0.00,weatherlink.com 1.10,2013-03-31 15:38:00,
2013-03-31 11:52:00,75.2,64.0,30.21,ESE,113,10.0,13.0,68,0.00,,,0.00,weatherlink.com 1.10,2013-03-31 15:52:00,
2013-03-31 12:08:00,75.0,65.0,30.21,ESE,109,9.0,16.0,70,0.00,,,0.00,weatherlink.com 1.10,2013-03-31 16:08:00,
2013-03-31 12:23:00,74.4,64.0,30.20,SE,144,7.0,11.0,71,0.00,,,0.00,weatherlink.com 1.10,2013-03-31 16:23:00,
2013-03-31 12:38:00,75.6,65.0,30.20,SE,126,9.0,17.0,70,0.00,,,0.00,weatherlink.com 1.10,2013-03-31 16:38:00,
2013-03-31 12:53:00,75.5,64.0,30.20,SE,133,15.0,18.0,68,0.00,,,0.00,weatherlink.com 1.10,2013-03-31 16:53:00,
2013-03-31 13:08:00,75.2,65.0,30.19,SE,128,9.0,18.0,70,0.00,,,0.00,weatherlink.com 1.10,2013-03-31 17:08:00,
2013-03-31 13:23:00,75.7,65.0,30.19,ESE,118,13.0,15.0,69,0.00,,,0.00,weatherlink.com 1.10,2013-03-31 17:23:00,
2013-03-31 13:39:00,75.8,64.0,30.18,ESE,120,11.0,17.0,68,0.00,,,0.00,weatherlink.com 1.10,2013-03-31 17:39:00,
2013-03-31 13:53:00,75.8,64.0,30.18,SSW,201,10.0,16.0,67,0.00,,,0.00,weatherlink.com 1.10,2013-03-31 17:53:00,
2013-03-31 14:09:00,75.2,64.0,30.17,SE,134,10.0,17.0,68,0.00,,,0.00,weatherlink.com 1.10,2013-03-31 18:09:00,
2013-03-31 14:23:00,74.9,64.0,30.17,SE,129,10.0,15.0,69,0.00,,,0.00,weatherlink.com 1.10,2013-03-31 18:23:00,
2013-03-31 14:39:00,75.6,64.0,30.16,SE,125,9.0,15.0,67,0.00,,,0.00,weatherlink.com 1.10,2013-03-31 18:39:00,
2013-03-31 14:53:00,75.3,64.0,30.15,SE,143,10.0,18.0,68,0.00,,,0.00,weatherlink.com 1.10,2013-03-31 18:53:00,
2013-03-31 15:09:00,76.3,64.0,30.14,SE,135,8.0,20.0,65,0.00,,,0.00,weatherlink.com 1.10,2013-03-31 19:09:00,
2013-03-31 15:23:00,75.8,65.0,30.15,SE,141,12.0,20.0,69,0.00,,,0.00,weatherlink.com 1.10,2013-03-31 19:23:00,
2013-03-31 15:55:00,75.4,65.0,30.14,ESE,103,10.0,16.0,70,0.00,,,0.00,weatherlink.com 1.10,2013-03-31 19:55:00,
2013-03-31 16:09:00,75.5,65.0,30.14,SSE,148,9.0,16.0,69,0.00,,,0.00,weatherlink.com 1.10,2013-03-31 20:09:00,
2013-03-31 16:24:00,75.7,66.0,30.13,ESE,117,16.0,17.0,71,0.00,,,0.00,weatherlink.com 1.10,2013-03-31 20:24:00,
2013-03-31 16:38:00,75.8,66.0,30.12,ESE,123,18.0,18.0,71,0.00,,,0.00,weatherlink.com 1.10,2013-03-31 20:38:00,
2013-03-31 16:55:00,75.4,66.0,30.11,ESE,108,13.0,18.0,73,0.00,,,0.00,weatherlink.com 1.10,2013-03-31 20:55:00,
2013-03-31 17:09:00,75.2,66.0,30.11,SE,124,16.0,16.0,73,0.00,,,0.00,weatherlink.com 1.10,2013-03-31 21:09:00,
2013-03-31 17:24:00,75.0,66.0,30.11,ESE,118,8.0,18.0,73,0.00,,,0.00,weatherlink.com 1.10,2013-03-31 21:24:00,
2013-03-31 17:40:00,75.2,66.0,30.11,SSE,148,8.0,17.0,73,0.00,,,0.00,weatherlink.com 1.10,2013-03-31 21:40:00,
2013-03-31 17:55:00,74.4,66.0,30.11,ESE,118,11.0,16.0,75,0.00,,,0.00,weatherlink.com 1.10,2013-03-31 21:55:00,
2013-03-31 18:09:00,74.4,66.0,30.11,SSE,155,9.0,15.0,74,0.00,,,0.00,weatherlink.com 1.10,2013-03-31 22:09:00,
2013-03-31 18:24:00,74.6,66.0,30.11,SE,134,9.0,18.0,75,0.00,,,0.00,weatherlink.com 1.10,2013-03-31 22:24:00,
2013-03-31 18:39:00,74.2,67.0,30.11,SE,132,10.0,14.0,77,0.00,,,0.00,weatherlink.com 1.10,2013-03-31 22:39:00,
2013-03-31 18:54:00,73.7,66.0,30.11,SSE,148,11.0,15.0,77,0.00,,,0.00,weatherlink.com 1.10,2013-03-31 22:54:00,
2013-03-31 19:09:00,73.4,66.0,30.11,SE,133,12.0,14.0,78,0.00,,,0.00,weatherlink.com 1.10,2013-03-31 23:09:00,
2013-03-31 19:24:00,73.2,66.0,30.11,ESE,108,12.0,14.0,78,0.00,,,0.00,weatherlink.com 1.10,2013-03-31 23:24:00,
2013-03-31 19:39:00,72.9,66.0,30.11,SSW,212,6.0,15.0,79,0.00,,,0.00,weatherlink.com 1.10,2013-03-31 23:39:00,
2013-03-31 19:54:00,72.7,66.0,30.11,SE,138,5.0,13.0,80,0.00,,,0.00,weatherlink.com 1.10,2013-03-31 23:54:00,
2013-03-31 20:09:00,72.6,67.0,30.11,SE,146,4.0,12.0,81,0.00,,,0.00,weatherlink.com 1.10,2013-04-01 00:09:00,
2013-03-31 20:24:00,72.5,66.0,30.11,ESE,122,8.0,11.0,81,0.00,,,0.00,weatherlink.com 1.10,2013-04-01 00:24:00,
2013-03-31 20:39:00,72.4,66.0,30.12,SSE,155,5.0,10.0,81,0.00,,,0.00,weatherlink.com 1.10,2013-04-01 00:39:00,
2013-03-31 20:55:00,72.4,66.0,30.12,SE,134,7.0,13.0,81,0.00,,,0.00,weatherlink.com 1.10,2013-04-01 00:55:00,
2013-03-31 21:09:00,72.4,67.0,30.11,SE,133,11.0,14.0,82,0.00,,,0.00,weatherlink.com 1.10,2013-04-01 01:09:00,
2013-03-31 21:24:00,72.4,67.0,30.11,ESE,121,8.0,12.0,82,0.00,,,0.00,weatherlink.com 1.10,2013-04-01 01:24:00,
2013-03-31 21:39:00,72.4,67.0,30.11,SE,125,7.0,14.0,82,0.00,,,0.00,weatherlink.com 1.10,2013-04-01 01:39:00,
2013-03-31 21:54:00,72.4,67.0,30.12,SE,134,7.0,12.0,82,0.00,,,0.00,weatherlink.com 1.10,2013-04-01 01:54:00,
2013-03-31 22:10:00,72.5,67.0,30.12,SSE,159,9.0,11.0,83,0.00,,,0.00,weatherlink.com 1.10,2013-04-01 02:10:00,
2013-03-31 22:25:00,72.3,67.0,30.12,ESE,115,8.0,11.0,83,0.00,,,0.00,weatherlink.com 1.10,2013-04-01 02:25:00,
2013-03-31 22:39:00,72.4,67.0,30.12,ESE,113,6.0,11.0,83,0.00,,,0.00,weatherlink.com 1.10,2013-04-01 02:39:00,
2013-03-31 22:54:00,72.3,66.0,30.12,SE,129,5.0,9.0,81,0.00,,,0.00,weatherlink.com 1.10,2013-04-01 02:54:00,
2013-03-31 23:09:00,72.3,67.0,30.12,ESE,117,8.0,9.0,82,0.00,,,0.00,weatherlink.com 1.10,2013-04-01 03:09:00,
2013-03-31 23:25:00,72.1,66.0,30.12,SSE,158,4.0,10.0,82,0.00,,,0.00,weatherlink.com 1.10,2013-04-01 03:25:00,
2013-03-31 23:39:00,71.8,66.0,30.12,SE,133,3.0,8.0,82,0.00,,,0.00,weatherlink.com 1.10,2013-04-01 03:39:00,
2013-03-31 23:55:00,71.7,66.0,30.11,SE,141,3.0,6.0,83,0.00,,,0.00,weatherlink.com 1.10,2013-04-01 03:55:00,